Time;durP1;ratioP1;P1;durP2;ratioP2;P2;SDS_P1;SDS_P2;PMS_P1;PMS_P2;Temp;Humidity;BMP_temperature;BMP_pressure;BME280_temperature;BME280_humidity;BME280_pressure;Samples;Min_cycle;Max_cycle;Signal;HPM_P1;HPM_P2
2023/06/02 00:00:00;;;;;;;27.77;12.77;;;;;;;16.30;100.00;100685.00;4967060;28;20043;-74
2023/06/02 00:02:29;;;;;;;23.67;11.73;;;;;;;16.34;100.00;100676.75;4960325;28;20039;-74
2023/06/02 00:04:59;;;;;;;20.55;11.95;;;;;;;16.27;100.00;100676.44;4958361;28;20127;-75
2023/06/02 00:07:27;;;;;;;26.20;12.43;;;;;;;16.21;100.00;100677.75;4943819;28;20445;-75
2023/06/02 00:09:55;;;;;;;21.92;11.25;;;;;;;16.26;100.00;100680.38;4959685;28;20539;-74
2023/06/02 00:12:21;;;;;;;23.38;11.32;;;;;;;16.23;100.00;100681.88;4959645;28;20122;-74
2023/06/02 00:14:48;;;;;;;20.17;11.30;;;;;;;16.21;100.00;100672.13;4943770;29;20036;-75
2023/06/02 00:17:14;;;;;;;23.77;11.57;;;;;;;16.21;100.00;100675.75;4976633;28;20051;-75
2023/06/02 00:19:42;;;;;;;23.45;11.52;;;;;;;16.18;100.00;100670.81;4944170;29;20036;-75
2023/06/02 00:22:09;;;;;;;20.75;10.80;;;;;;;16.16;100.00;100675.09;4943434;29;20062;-75
2023/06/02 00:24:35;;;;;;;21.88;11.20;;;;;;;16.14;100.00;100669.81;4941513;29;20130;-75
2023/06/02 00:27:00;;;;;;;21.42;11.25;;;;;;;16.12;100.00;100680.53;4940385;29;20074;-74
2023/06/02 00:29:25;;;;;;;18.42;10.63;;;;;;;16.10;100.00;100677.22;4946852;29;20043;-75
2023/06/02 00:31:51;;;;;;;24.83;11.40;;;;;;;16.05;100.00;100669.81;4940206;29;20043;-75
2023/06/02 00:34:16;;;;;;;25.83;12.43;;;;;;;15.99;100.00;100673.09;4940669;29;20036;-74
2023/06/02 00:36:42;;;;;;;25.83;11.77;;;;;;;15.97;100.00;100672.59;4939352;29;20039;-74
2023/06/02 00:39:07;;;;;;;23.08;10.90;;;;;;;15.92;100.00;100672.75;4937079;28;20391;-74
2023/06/02 00:41:33;;;;;;;22.92;11.48;;;;;;;15.89;100.00;100667.81;4939815;29;20044;-74
2023/06/02 00:43:59;;;;;;;23.13;11.43;;;;;;;15.83;100.00;100662.34;4924244;29;20044;-75
2023/06/02 00:46:24;;;;;;;26.88;12.50;;;;;;;15.77;100.00;100668.44;4936103;29;20044;-74
2023/06/02 00:48:50;;;;;;;25.55;12.57;;;;;;;15.69;100.00;100678.47;4933270;29;20054;-74
2023/06/02 00:51:16;;;;;;;17.92;11.10;;;;;;;15.72;100.00;100683.41;4956510;29;20087;-74
2023/06/02 00:53:42;;;;;;;23.95;11.13;;;;;;;15.69;100.00;100680.44;4945973;29;20512;-74
2023/06/02 00:56:08;;;;;;;22.23;11.63;;;;;;;15.64;100.00;100678.56;4942912;29;20126;-74
2023/06/02 00:58:37;;;;;;;24.33;10.57;;;;;;;15.60;100.00;100678.41;4934073;29;20039;-74
2023/06/02 01:01:08;;;;;;;26.13;11.30;;;;;;;15.53;100.00;100668.81;4936694;29;20096;-74
2023/06/02 01:03:34;;;;;;;21.70;11.40;;;;;;;15.54;100.00;100676.06;4938711;29;20497;-75
2023/06/02 01:06:02;;;;;;;27.60;13.75;;;;;;;15.34;100.00;100671.88;4927159;29;20496;-74
2023/06/02 01:08:27;;;;;;;18.40;10.85;;;;;;;15.39;100.00;100668.94;4908585;29;20448;-74
2023/06/02 01:10:52;;;;;;;21.10;11.32;;;;;;;15.40;100.00;100676.16;4924580;28;20113;-74
2023/06/02 01:13:18;;;;;;;22.20;11.73;;;;;;;15.40;100.00;100681.75;4958717;29;20049;-74
2023/06/02 01:15:46;;;;;;;21.83;11.18;;;;;;;15.40;100.00;100685.38;4927555;28;20094;-74
2023/06/02 01:18:12;;;;;;;28.02;11.35;;;;;;;15.35;100.00;100693.94;4958993;29;20074;-74
2023/06/02 01:20:48;;;;;;;29.00;14.80;;;;;;;15.24;100.00;100694.50;4942285;29;20048;-74
2023/06/02 01:23:25;;;;;;;29.17;14.43;;;;;;;15.15;100.00;100688.88;4980516;28;20094;-74
2023/06/02 01:25:55;;;;;;;22.35;11.68;;;;;;;15.12;100.00;100690.34;4930983;28;20507;-74
2023/06/02 01:28:21;;;;;;;24.05;12.95;;;;;;;15.03;100.00;100697.88;4981361;28;20468;-74
2023/06/02 01:30:52;;;;;;;28.02;13.98;;;;;;;14.91;100.00;100694.84;4942900;28;20039;-74
2023/06/02 01:33:27;;;;;;;26.63;12.88;;;;;;;14.80;100.00;100702.66;4955912;28;20043;-74
2023/06/02 01:35:58;;;;;;;31.17;15.15;;;;;;;14.65;100.00;100695.44;4972970;28;20039;-74
2023/06/02 01:38:24;;;;;;;30.17;15.68;;;;;;;14.59;100.00;100704.28;4959191;28;20039;-74
2023/06/02 01:40:50;;;;;;;30.83;15.38;;;;;;;14.45;100.00;100707.91;4965190;28;20046;-74
2023/06/02 01:43:16;;;;;;;29.50;15.82;;;;;;;14.40;100.00;100699.69;4957630;28;20077;-74
2023/06/02 01:45:44;;;;;;;29.45;15.18;;;;;;;14.41;100.00;100701.31;4952248;29;20043;-74
2023/06/02 01:48:10;;;;;;;28.45;15.93;;;;;;;14.34;100.00;100692.53;4958274;28;20047;-74
2023/06/02 01:50:37;;;;;;;22.80;13.13;;;;;;;14.35;100.00;100691.41;4958329;29;20098;-74
2023/06/02 01:53:02;;;;;;;32.30;15.35;;;;;;;14.19;100.00;100698.50;4954973;29;20031;-74
2023/06/02 01:55:28;;;;;;;32.83;15.90;;;;;;;14.16;100.00;100690.75;4977593;28;20049;-74
2023/06/02 01:57:53;;;;;;;26.98;14.85;;;;;;;14.10;100.00;100692.81;4973771;28;20043;-74
2023/06/02 02:00:19;;;;;;;30.98;14.68;;;;;;;14.01;100.00;100680.72;4967811;28;20069;-74
2023/06/02 02:02:45;;;;;;;30.35;16.00;;;;;;;13.97;100.00;100682.50;4959146;28;20046;-74
2023/06/02 02:05:11;;;;;;;38.17;17.42;;;;;;;13.88;100.00;100682.41;4948865;28;20047;-74
2023/06/02 02:07:37;;;;;;;28.90;14.07;;;;;;;13.93;100.00;100673.94;4961194;28;20038;-74
2023/06/02 02:10:02;;;;;;;30.80;15.85;;;;;;;13.83;100.00;100676.94;4945244;28;20042;-74
2023/06/02 02:12:28;;;;;;;30.38;14.32;;;;;;;13.92;100.00;100677.84;4977040;28;20123;-74
2023/06/02 02:14:56;;;;;;;28.73;13.02;;;;;;;13.92;100.00;100683.41;4961051;28;20039;-74
2023/06/02 02:17:24;;;;;;;25.38;12.73;;;;;;;13.93;100.00;100679.50;4974714;28;20047;-74
2023/06/02 02:19:50;;;;;;;31.60;15.05;;;;;;;13.89;100.00;100667.31;4942322;29;20045;-74
2023/06/02 02:22:17;;;;;;;35.58;16.65;;;;;;;13.78;100.00;100671.44;4957905;28;20044;-74
2023/06/02 02:24:42;;;;;;;27.77;14.25;;;;;;;13.73;100.00;100675.16;4942615;29;20072;-74
2023/06/02 02:27:08;;;;;;;29.88;17.13;;;;;;;13.56;100.00;100675.78;4926478;29;20039;-74
2023/06/02 02:29:36;;;;;;;24.15;14.68;;;;;;;13.63;100.00;100672.59;4946811;29;20047;-74
2023/06/02 02:32:01;;;;;;;27.42;15.05;;;;;;;13.46;100.00;100681.59;4942403;29;20457;-74
2023/06/02 02:34:28;;;;;;;34.25;16.50;;;;;;;13.45;100.00;100679.09;4942741;29;20032;-74
2023/06/02 02:36:58;;;;;;;30.38;17.42;;;;;;;13.33;100.00;100674.03;4942429;29;20094;-74
2023/06/02 02:39:24;;;;;;;29.63;15.93;;;;;;;13.27;100.00;100675.28;4941501;29;20477;-74
2023/06/02 02:41:50;;;;;;;38.97;17.63;;;;;;;13.17;100.00;100674.28;4958978;29;20062;-74
2023/06/02 02:44:15;;;;;;;28.95;16.15;;;;;;;13.21;100.00;100677.31;4961489;29;20043;-74
2023/06/02 02:46:40;;;;;;;31.08;14.07;;;;;;;13.28;100.00;100679.72;4928725;29;20040;-74
2023/06/02 02:49:06;;;;;;;30.95;16.98;;;;;;;13.15;100.00;100682.16;4927020;29;20031;-74
2023/06/02 02:51:32;;;;;;;33.92;16.17;;;;;;;13.10;100.00;100685.03;4942275;29;20040;-74
2023/06/02 02:53:57;;;;;;;30.30;17.08;;;;;;;13.04;100.00;100675.13;4926620;29;20043;-74
2023/06/02 02:56:23;;;;;;;26.17;14.93;;;;;;;13.07;100.00;100670.88;4958816;29;20043;-74
2023/06/02 02:58:49;;;;;;;25.48;15.38;;;;;;;13.12;100.00;100673.56;4961704;29;20044;-74
2023/06/02 03:01:15;;;;;;;30.35;15.00;;;;;;;13.05;100.00;100673.97;4931480;29;20122;-74
2023/06/02 03:03:41;;;;;;;30.17;16.33;;;;;;;13.04;100.00;100675.13;4942895;29;20039;-74
2023/06/02 03:06:07;;;;;;;29.85;17.13;;;;;;;12.88;100.00;100682.09;4931347;29;20035;-74
2023/06/02 03:08:32;;;;;;;28.27;16.35;;;;;;;12.80;100.00;100686.41;4945268;29;20035;-74
2023/06/02 03:10:58;;;;;;;31.05;16.33;;;;;;;12.88;100.00;100682.09;4927058;29;20039;-74
2023/06/02 03:13:23;;;;;;;34.00;18.20;;;;;;;12.75;100.00;100690.09;4926240;29;20043;-74
2023/06/02 03:15:49;;;;;;;33.88;16.05;;;;;;;12.80;100.00;100689.19;4946311;28;20032;-74
2023/06/02 03:18:15;;;;;;;32.53;15.23;;;;;;;12.84;100.00;100692.19;4913607;29;20050;-74
2023/06/02 03:20:41;;;;;;;31.58;16.75;;;;;;;12.80;100.00;100683.59;4957999;28;20039;-74
2023/06/02 03:23:09;;;;;;;31.05;16.27;;;;;;;12.72;100.00;100684.31;4963240;28;20566;-74
2023/06/02 03:25:35;;;;;;;28.20;16.27;;;;;;;12.70;100.00;100690.19;4932969;29;20076;-74
2023/06/02 03:28:01;;;;;;;26.10;15.00;;;;;;;12.77;100.00;100691.75;4935084;29;20095;-74
2023/06/02 03:30:26;;;;;;;25.92;14.48;;;;;;;12.77;100.00;100695.38;4922609;29;20040;-74
2023/06/02 03:32:52;;;;;;;31.10;15.90;;;;;;;12.59;100.00;100699.84;4960819;29;20043;-74
2023/06/02 03:35:17;;;;;;;29.33;15.50;;;;;;;12.60;100.00;100695.91;4941576;29;20106;-74
2023/06/02 03:37:43;;;;;;;26.05;14.07;;;;;;;12.60;100.00;100698.72;4931886;29;20039;-74
2023/06/02 03:40:09;;;;;;;30.75;15.30;;;;;;;12.64;100.00;100698.91;4957302;29;20043;-74
2023/06/02 03:42:35;;;;;;;29.13;15.25;;;;;;;12.58;100.00;100694.56;4925440;29;20050;-74
2023/06/02 03:45:02;;;;;;;25.67;13.77;;;;;;;12.58;100.00;100697.34;4940982;29;20048;-74
2023/06/02 03:47:28;;;;;;;28.83;13.88;;;;;;;12.57;100.00;100698.50;4941428;29;20110;-74
2023/06/02 03:49:53;;;;;;;26.70;15.27;;;;;;;12.53;100.00;100703.81;4942539;29;20044;-74
2023/06/02 03:52:19;;;;;;;28.58;13.55;;;;;;;12.51;100.00;100701.34;4925484;29;20042;-74
2023/06/02 03:54:45;;;;;;;21.88;14.30;;;;;;;12.43;100.00;100701.22;4925228;29;20098;-74
2023/06/02 03:57:10;;;;;;;25.17;14.27;;;;;;;12.39;100.00;100708.50;4948311;29;20063;-74
2023/06/02 03:59:36;;;;;;;32.67;16.13;;;;;;;12.28;100.00;100705.84;4957421;29;20039;-74
2023/06/02 04:02:01;;;;;;;26.50;15.13;;;;;;;12.23;100.00;100705.09;4925590;29;20036;-74
2023/06/02 04:04:27;;;;;;;27.35;15.63;;;;;;;12.21;100.00;100712.94;4935633;29;20050;-74
2023/06/02 04:06:53;;;;;;;22.58;13.00;;;;;;;12.32;100.00;100714.47;4941248;29;20043;-74
2023/06/02 04:09:18;;;;;;;28.08;15.57;;;;;;;12.14;100.00;100718.88;4940904;29;20108;-74
2023/06/02 04:11:44;;;;;;;24.30;13.98;;;;;;;12.21;100.00;100724.91;4924974;29;20477;-74
2023/06/02 04:14:10;;;;;;;24.45;13.93;;;;;;;12.26;100.00;100722.06;4942135;29;20050;-74
2023/06/02 04:16:35;;;;;;;23.40;13.55;;;;;;;12.24;100.00;100717.91;4942247;29;20039;-74
2023/06/02 04:19:01;;;;;;;22.40;13.23;;;;;;;12.23;100.00;100717.09;4941055;29;20069;-74
2023/06/02 04:21:26;;;;;;;20.02;12.45;;;;;;;12.28;100.00;100728.13;4955477;28;20055;-74
2023/06/02 04:23:52;;;;;;;28.52;16.73;;;;;;;12.20;100.00;100717.69;4971522;28;20050;-74
2023/06/02 04:26:17;;;;;;;29.25;15.65;;;;;;;12.10;100.00;100720.63;4968893;28;20047;-74
2023/06/02 04:28:42;;;;;;;24.27;12.77;;;;;;;12.23;100.00;100728.22;4966590;28;20413;-74
2023/06/02 04:31:11;;;;;;;27.67;13.65;;;;;;;12.25;100.00;100725.13;4959686;28;20043;-74
2023/06/02 04:33:37;;;;;;;30.33;16.55;;;;;;;12.15;100.00;100720.56;4943554;28;20031;-75
2023/06/02 04:36:03;;;;;;;25.23;15.05;;;;;;;12.15;100.00;100720.56;4959749;28;20074;-74
2023/06/02 04:38:29;;;;;;;24.40;14.35;;;;;;;12.18;100.00;100719.94;4959507;28;20095;-74
2023/06/02 04:40:56;;;;;;;25.58;14.65;;;;;;;12.14;100.00;100718.06;4969473;28;20411;-74
2023/06/02 04:43:22;;;;;;;31.13;16.05;;;;;;;12.11;100.00;100725.03;4947084;28;20039;-74
2023/06/02 04:45:47;;;;;;;27.60;14.63;;;;;;;12.13;100.00;100733.94;4952760;28;20046;-74
2023/06/02 04:48:13;;;;;;;35.17;17.65;;;;;;;12.08;100.00;100728.44;4962536;28;20034;-74
2023/06/02 04:50:39;;;;;;;23.58;13.60;;;;;;;12.28;100.00;100724.53;4946576;28;20399;-74
2023/06/02 04:53:05;;;;;;;20.60;12.85;;;;;;;12.38;100.00;100727.19;4962050;28;20039;-74
2023/06/02 04:55:31;;;;;;;28.52;15.48;;;;;;;12.40;100.00;100724.94;4969449;28;20497;-74
2023/06/02 04:57:56;;;;;;;25.33;13.88;;;;;;;12.48;100.00;100731.75;4958352;29;20047;-74
2023/06/02 05:00:22;;;;;;;22.52;13.85;;;;;;;12.57;100.00;100731.94;4943220;29;20038;-74
2023/06/02 05:02:47;;;;;;;22.65;12.30;;;;;;;12.69;100.00;100735.88;4960500;28;20043;-74
2023/06/02 05:05:12;;;;;;;26.80;15.43;;;;;;;12.66;100.00;100727.31;4970814;28;20046;-74
2023/06/02 05:07:38;;;;;;;24.60;15.02;;;;;;;12.77;100.00;100728.00;4958993;28;20040;-74
2023/06/02 05:10:04;;;;;;;27.17;16.52;;;;;;;12.74;100.00;100730.25;4959014;28;20054;-74
2023/06/02 05:12:30;;;;;;;25.48;13.82;;;;;;;12.83;100.00;100735.13;4958486;28;20381;-74
2023/06/02 05:14:56;;;;;;;25.10;15.02;;;;;;;12.87;100.00;100738.94;4959112;28;20035;-74
2023/06/02 05:17:27;;;;;;;31.55;15.45;;;;;;;12.97;100.00;100736.81;4956431;28;20363;-74
2023/06/02 05:19:53;;;;;;;29.75;15.80;;;;;;;13.04;100.00;100742.03;4942899;29;20042;-74
2023/06/02 05:22:19;;;;;;;27.98;16.65;;;;;;;13.12;100.00;100751.63;4961709;28;20060;-74
2023/06/02 05:24:44;;;;;;;26.35;16.73;;;;;;;13.21;100.00;100749.81;4963905;28;20075;-75
2023/06/02 05:27:10;;;;;;;26.75;17.23;;;;;;;13.30;100.00;100752.75;4939190;29;20040;-75
2023/06/02 05:29:35;;;;;;;21.67;15.35;;;;;;;13.43;100.00;100748.31;4962321;28;20508;-74
2023/06/02 05:32:01;;;;;;;22.85;15.40;;;;;;;13.49;100.00;100747.13;4923441;29;20042;-75
2023/06/02 05:34:26;;;;;;;25.45;15.23;;;;;;;13.55;100.00;100751.47;4939395;29;20446;-74
2023/06/02 05:36:52;;;;;;;25.08;16.15;;;;;;;13.56;100.00;100745.56;4955621;29;20460;-74
2023/06/02 05:39:17;;;;;;;25.38;17.55;;;;;;;13.49;100.00;100741.53;4939419;29;20036;-74
2023/06/02 05:41:43;;;;;;;26.10;16.17;;;;;;;13.48;100.00;100743.47;4939020;29;20346;-74
2023/06/02 05:44:08;;;;;;;24.55;16.55;;;;;;;13.48;100.00;100739.88;4942475;29;20043;-74
2023/06/02 05:46:34;;;;;;;26.02;16.60;;;;;;;13.50;100.00;100744.00;4942205;29;20098;-75
2023/06/02 05:48:59;;;;;;;24.30;16.98;;;;;;;13.50;100.00;100741.22;4939286;29;20066;-75
2023/06/02 05:51:25;;;;;;;26.25;16.42;;;;;;;13.53;100.00;100743.38;4923306;29;20051;-75
2023/06/02 05:53:50;;;;;;;26.10;16.90;;;;;;;13.54;100.00;100747.84;4939022;29;20039;-75
2023/06/02 05:56:16;;;;;;;27.33;16.48;;;;;;;13.51;100.00;100747.63;4938739;29;20044;-75
2023/06/02 05:58:42;;;;;;;28.52;17.70;;;;;;;13.38;100.00;100752.06;4941482;29;20122;-75
2023/06/02 06:01:09;;;;;;;25.42;16.63;;;;;;;13.35;100.00;100747.09;4954263;29;20036;-75
2023/06/02 06:03:35;;;;;;;25.35;16.35;;;;;;;13.41;100.00;100748.66;4951186;28;20046;-75
2023/06/02 06:06:01;;;;;;;26.60;17.08;;;;;;;13.38;100.00;100752.06;4926176;29;20408;-75
2023/06/02 06:08:26;;;;;;;24.33;16.42;;;;;;;13.33;100.00;100757.72;4942495;29;20035;-75
2023/06/02 06:10:52;;;;;;;23.10;16.60;;;;;;;13.28;100.00;100766.19;4924897;29;20064;-74
2023/06/02 06:13:17;;;;;;;22.75;16.63;;;;;;;13.21;100.00;100758.19;4939079;29;20044;-74
2023/06/02 06:15:43;;;;;;;25.58;18.13;;;;;;;13.24;100.00;100756.75;4942305;28;20035;-74
2023/06/02 06:18:08;;;;;;;24.23;17.17;;;;;;;13.29;100.00;100762.25;4938870;29;20465;-74
2023/06/02 06:20:34;;;;;;;25.10;17.40;;;;;;;13.29;100.00;100768.66;4939975;29;20102;-75
2023/06/02 06:22:59;;;;;;;23.75;16.27;;;;;;;13.34;100.00;100767.72;4949710;28;20097;-75
2023/06/02 06:25:25;;;;;;;26.25;17.63;;;;;;;13.34;100.00;100770.53;4981893;28;20087;-74
2023/06/02 06:27:50;;;;;;;22.30;15.65;;;;;;;13.43;100.00;100767.84;4960975;28;20035;-75
2023/06/02 06:30:16;;;;;;;24.08;16.88;;;;;;;13.45;100.00;100773.97;4951172;28;20047;-75
2023/06/02 06:32:41;;;;;;;23.65;17.58;;;;;;;13.48;100.00;100781.72;4941914;29;20427;-74
2023/06/02 06:35:07;;;;;;;24.58;15.55;;;;;;;13.56;100.00;100778.22;4958034;28;20042;-75
2023/06/02 06:37:32;;;;;;;26.83;17.38;;;;;;;13.55;100.00;100788.56;4949640;28;20071;-74
2023/06/02 06:39:58;;;;;;;25.05;17.25;;;;;;;13.44;100.00;100784.31;4937956;28;20102;-74
2023/06/02 06:42:23;;;;;;;25.10;17.15;;;;;;;13.46;100.00;100787.63;4957497;28;20043;-75
2023/06/02 06:44:50;;;;;;;23.58;17.85;;;;;;;13.54;100.00;100788.84;4972303;28;20535;-75
2023/06/02 06:47:15;;;;;;;30.70;18.90;;;;;;;13.49;100.00;100788.97;4968883;28;20122;-75
2023/06/02 06:49:41;;;;;;;26.83;18.90;;;;;;;13.55;100.00;100791.34;4956224;28;20042;-75
2023/06/02 06:52:06;;;;;;;24.65;17.63;;;;;;;13.57;100.00;100794.66;4952956;29;20047;-74
2023/06/02 06:54:32;;;;;;;25.88;18.13;;;;;;;13.59;100.00;100797.94;4956261;28;20045;-75
2023/06/02 06:56:58;;;;;;;28.52;17.70;;;;;;;13.62;100.00;100796.50;4968841;28;20047;-75
2023/06/02 06:59:23;;;;;;;25.33;16.67;;;;;;;13.70;100.00;100797.78;4957577;28;20054;-75
2023/06/02 07:01:49;;;;;;;26.33;16.85;;;;;;;13.77;100.00;100799.03;4949900;28;20038;-75
2023/06/02 07:04:14;;;;;;;26.75;16.98;;;;;;;13.88;100.00;100799.66;4959172;28;20054;-75
2023/06/02 07:06:40;;;;;;;26.85;17.52;;;;;;;13.91;100.00;100803.81;4949603;28;20078;-75
2023/06/02 07:09:05;;;;;;;24.98;17.45;;;;;;;13.95;100.00;100799.25;4959401;28;20039;-75
2023/06/02 07:11:31;;;;;;;23.95;17.13;;;;;;;14.08;100.00;100809.59;4945161;29;20039;-75
2023/06/02 07:13:56;;;;;;;32.38;17.75;;;;;;;14.05;100.00;100811.03;4961177;28;20043;-75
2023/06/02 07:16:22;;;;;;;30.02;17.25;;;;;;;14.06;100.00;100801.50;4952221;28;20117;-75
2023/06/02 07:18:48;;;;;;;24.85;17.58;;;;;;;14.17;100.00;100795.72;4942843;28;20039;-75
2023/06/02 07:21:13;;;;;;;25.40;16.88;;;;;;;14.22;100.00;100798.41;4977025;28;20405;-75
2023/06/02 07:23:39;;;;;;;27.40;17.52;;;;;;;14.28;100.00;100808.34;4960380;29;20046;-75
2023/06/02 07:26:04;;;;;;;26.63;18.30;;;;;;;14.35;100.00;100803.16;4957654;28;20044;-75
2023/06/02 07:28:30;;;;;;;29.02;18.52;;;;;;;14.42;100.00;100803.56;4965600;28;20070;-75
2023/06/02 07:30:55;;;;;;;24.35;16.58;;;;;;;14.59;100.00;100805.72;4941703;29;20047;-75
2023/06/02 07:33:21;;;;;;;28.02;16.83;;;;;;;14.81;100.00;100799.34;4957459;28;20039;-75
2023/06/02 07:35:46;;;;;;;25.52;18.50;;;;;;;14.97;100.00;100797.03;4941935;29;20047;-75
2023/06/02 07:38:12;;;;;;;29.05;19.05;;;;;;;15.14;100.00;100801.94;4941470;29;20058;-75
2023/06/02 07:40:37;;;;;;;27.77;18.23;;;;;;;15.26;100.00;100809.75;4948312;28;20490;-75
2023/06/02 07:43:03;;;;;;;26.20;19.20;;;;;;;15.36;100.00;100810.31;4969323;28;20043;-75
2023/06/02 07:45:29;;;;;;;28.90;19.77;;;;;;;15.45;100.00;100809.56;4948363;29;20040;-75
2023/06/02 07:47:54;;;;;;;31.27;22.55;;;;;;;15.38;100.00;100819.22;4960443;29;20038;-75
2023/06/02 07:50:20;;;;;;;30.85;22.98;;;;;;;15.50;100.00;100810.25;4969418;28;20460;-75
2023/06/02 07:52:46;;;;;;;32.42;21.90;;;;;;;15.49;100.00;100807.75;4955184;28;20480;-75
2023/06/02 07:55:12;;;;;;;33.67;22.85;;;;;;;15.49;100.00;100816.16;4969517;28;20047;-75
2023/06/02 07:57:37;;;;;;;28.15;20.83;;;;;;;15.51;100.00;100813.88;4954450;29;20054;-75
2023/06/02 08:00:14;;;;;;;33.63;23.55;;;;;;;15.55;100.00;100815.72;4958959;29;20039;-75
2023/06/02 08:02:41;;;;;;;31.17;22.08;;;;;;;15.59;100.00;100811.09;4964982;28;20039;-75
2023/06/02 08:05:07;;;;;;;29.95;21.13;;;;;;;15.69;100.00;100807.25;4950930;29;20131;-75
2023/06/02 08:07:33;;;;;;;32.95;22.88;;;;;;;15.77;100.00;100811.25;4940825;29;20048;-75
2023/06/02 08:09:58;;;;;;;31.77;23.38;;;;;;;15.84;100.00;100808.81;4957182;28;20091;-75
2023/06/02 08:12:24;;;;;;;31.65;22.25;;;;;;;16.01;100.00;100808.88;4940523;29;20095;-75
2023/06/02 08:14:49;;;;;;;29.05;19.80;;;;;;;16.21;100.00;100817.84;4957109;28;20054;-75
2023/06/02 08:17:15;;;;;;;29.75;20.65;;;;;;;16.22;100.00;100811.94;4971850;28;20048;-75
2023/06/02 08:19:40;;;;;;;27.42;19.90;;;;;;;16.34;100.00;100816.06;4956822;28;20484;-75
2023/06/02 08:22:06;;;;;;;29.08;19.83;;;;;;;16.43;100.00;100811.31;4962388;28;20051;-75
2023/06/02 08:24:31;;;;;;;29.77;19.75;;;;;;;16.60;100.00;100813.31;4957953;28;20481;-75
2023/06/02 08:26:57;;;;;;;30.58;19.40;;;;;;;16.69;100.00;100817.81;4924442;29;20043;-75
2023/06/02 08:29:23;;;;;;;32.08;19.35;;;;;;;16.84;100.00;100815.69;4938267;29;20142;-75
2023/06/02 08:31:49;;;;;;;25.40;18.98;;;;;;;17.00;100.00;100804.81;4940409;29;20039;-75
2023/06/02 08:34:20;;;;;;;27.83;19.48;;;;;;;17.07;100.00;100817.19;4956343;29;20043;-75
2023/06/02 08:36:45;;;;;;;28.90;21.45;;;;;;;17.09;100.00;100816.88;4927574;29;20389;-75
2023/06/02 08:39:11;;;;;;;25.90;19.50;;;;;;;17.18;100.00;100812.06;4946237;29;20052;-75
2023/06/02 08:41:38;;;;;;;28.15;19.70;;;;;;;17.12;100.00;100802.97;4959650;29;20043;-75
2023/06/02 08:44:03;;;;;;;24.55;19.08;;;;;;;17.12;100.00;100802.97;4950296;29;20076;-75
2023/06/02 08:46:29;;;;;;;23.63;19.58;;;;;;;17.06;100.00;100801.50;4940367;29;20099;-75
2023/06/02 08:48:57;;;;;;;24.23;18.27;;;;;;;17.15;100.00;100807.94;4940391;29;20505;-75
2023/06/02 08:51:22;;;;;;;22.73;17.20;;;;;;;17.13;100.00;100807.47;4954535;29;20075;-75
2023/06/02 08:53:48;;;;;;;22.45;17.00;;;;;;;17.15;100.00;100805.13;4940171;29;20047;-75
2023/06/02 08:56:14;;;;;;;23.60;15.70;;;;;;;17.32;100.00;100798.66;4942803;29;20069;-75
2023/06/02 08:58:40;;;;;;;23.75;16.88;;;;;;;17.44;100.00;100792.41;4958953;29;20157;-75
2023/06/02 09:01:05;;;;;;;22.92;15.27;;;;;;;17.62;100.00;100782.75;4926843;29;20043;-75
2023/06/02 09:03:31;;;;;;;22.85;16.20;;;;;;;17.85;100.00;100782.53;4937989;29;20051;-75
2023/06/02 09:05:58;;;;;;;21.33;14.50;;;;;;;18.09;100.00;100790.38;4925729;28;20493;-75
2023/06/02 09:08:23;;;;;;;19.25;14.52;;;;;;;18.27;100.00;100777.03;4942597;29;20054;-75
2023/06/02 09:10:49;;;;;;;19.55;14.73;;;;;;;18.43;100.00;100780.91;4942851;29;20059;-75
2023/06/02 09:13:28;;;;;;;17.95;13.82;;;;;;;18.64;100.00;100777.31;4955993;29;20054;-76
2023/06/02 09:15:58;;;;;;;18.80;13.48;;;;;;;18.88;100.00;100785.91;4926616;29;20062;-76
2023/06/02 09:18:24;;;;;;;21.13;14.70;;;;;;;18.95;100.00;100783.38;4958670;29;20042;-75
2023/06/02 09:20:50;;;;;;;22.42;15.38;;;;;;;19.02;100.00;100787.63;4929031;29;20505;-75
2023/06/02 09:23:16;;;;;;;20.10;14.82;;;;;;;19.07;100.00;100793.03;4943924;28;20046;-75
2023/06/02 09:25:43;;;;;;;19.55;14.55;;;;;;;19.08;100.00;100797.50;4940780;29;20102;-75
2023/06/02 09:28:09;;;;;;;20.40;15.32;;;;;;;19.24;100.00;100792.88;4955902;28;20078;-75
2023/06/02 09:30:35;;;;;;;18.60;14.20;;;;;;;19.28;100.00;100798.63;4961025;28;20061;-75
2023/06/02 09:33:05;;;;;;;20.15;14.98;;;;;;;19.56;100.00;100791.22;4942517;29;20039;-75
2023/06/02 09:35:44;;;;;;;23.67;15.13;;;;;;;19.62;100.00;100786.19;4941977;29;20059;-75
2023/06/02 09:38:15;;;;;;;22.80;14.45;;;;;;;19.74;100.00;100774.97;4942731;28;20039;-75
2023/06/02 09:40:41;;;;;;;18.48;13.88;;;;;;;19.89;100.00;100778.25;4956493;29;20523;-75
2023/06/02 09:43:08;;;;;;;22.38;14.50;;;;;;;19.98;98.86;100776.19;4945563;28;20034;-75
2023/06/02 09:45:34;;;;;;;19.10;13.55;;;;;;;20.11;94.72;100772.16;4952518;29;20481;-75
2023/06/02 09:47:59;;;;;;;19.15;13.50;;;;;;;20.17;93.38;100781.22;4941981;28;20036;-75
2023/06/02 09:50:31;;;;;;;18.20;12.50;;;;;;;20.03;90.94;100773.94;4942495;29;20043;-75
2023/06/02 09:53:04;;;;;;;19.27;11.77;;;;;;;20.28;90.51;100777.59;4971551;28;20094;-75
2023/06/02 09:55:35;;;;;;;18.55;13.18;;;;;;;20.22;89.52;100778.97;4945320;28;20052;-75
2023/06/02 09:58:01;;;;;;;17.60;12.35;;;;;;;20.35;91.35;100770.53;4940209;29;20496;-75
2023/06/02 10:00:27;;;;;;;17.15;12.05;;;;;;;20.33;92.27;100770.88;4952852;28;20122;-75
2023/06/02 10:02:52;;;;;;;15.25;11.48;;;;;;;20.41;90.45;100769.09;4976679;28;20039;-75
2023/06/02 10:05:20;;;;;;;17.95;11.20;;;;;;;20.55;89.13;100769.59;4952308;28;20086;-75
2023/06/02 10:08:11;;;;;;;17.00;10.80;;;;;;;20.69;89.74;100770.00;4942008;29;20047;-75
2023/06/02 10:11:04;;;;;;;17.50;10.48;;;;;;;20.71;88.72;100767.66;4973167;28;20042;-75
2023/06/02 10:14:04;;;;;;;18.85;11.25;;;;;;;20.83;86.73;100774.44;4964640;28;20039;-75
2023/06/02 10:16:46;;;;;;;17.65;11.77;;;;;;;20.95;85.34;100766.78;4975801;28;20049;-75
2023/06/02 10:19:42;;;;;;;14.48;11.02;;;;;;;21.04;89.53;100775.09;4959718;28;20125;-75
2023/06/02 10:22:11;;;;;;;15.65;11.25;;;;;;;21.15;85.44;100770.56;4973558;28;20051;-75
2023/06/02 10:24:48;;;;;;;15.75;11.70;;;;;;;21.25;84.06;100768.41;4973810;28;20051;-75
2023/06/02 10:27:36;;;;;;;14.52;11.27;;;;;;;21.23;81.13;100770.75;4944446;29;20074;-75
2023/06/02 10:30:02;;;;;;;14.95;11.00;;;;;;;21.23;81.14;100773.59;4935834;29;20049;-75
2023/06/02 10:32:33;;;;;;;14.65;10.63;;;;;;;21.27;81.44;100771.69;4950720;29;20074;-75
2023/06/02 10:34:59;;;;;;;18.27;10.48;;;;;;;21.36;82.97;100763.88;4938623;29;20047;-75
2023/06/02 10:37:26;;;;;;;14.05;10.25;;;;;;;21.37;84.31;100765.56;4938650;29;20047;-75
2023/06/02 10:39:53;;;;;;;13.35;10.52;;;;;;;21.41;82.02;100774.94;4952200;29;20047;-75
2023/06/02 10:42:20;;;;;;;14.82;9.73;;;;;;;21.57;82.30;100764.50;4969399;28;20035;-75
2023/06/02 10:44:47;;;;;;;17.08;10.82;;;;;;;21.66;81.88;100760.69;4957723;28;20134;-75
2023/06/02 10:47:18;;;;;;;14.35;10.40;;;;;;;21.71;79.08;100761.22;4945737;29;20050;-75
2023/06/02 10:50:00;;;;;;;15.65;10.00;;;;;;;21.78;77.92;100754.94;4945688;29;20041;-75
2023/06/02 10:52:26;;;;;;;13.88;9.55;;;;;;;21.79;74.67;100760.22;4966063;28;20500;-75
2023/06/02 10:55:07;;;;;;;15.60;8.95;;;;;;;21.90;74.04;100754.84;4956474;29;20032;-75
2023/06/02 10:57:55;;;;;;;17.63;9.48;;;;;;;21.97;75.26;100754.22;4961246;29;20046;-75
2023/06/02 11:00:35;;;;;;;14.07;9.18;;;;;;;21.96;72.68;100755.41;4971262;28;20377;-75